Time;durP1;ratioP1;P1;durP2;ratioP2;P2;SDS_P1;SDS_P2;PMS_P1;PMS_P2;Temp;Humidity;BMP_temperature;BMP_pressure;BME280_temperature;BME280_humidity;BME280_pressure;Samples;Min_cycle;Max_cycle;Signal;HPM_P1;HPM_P2
2023/02/03 00:00:31;;;;;;;5.00;2.10;;;;;;;8.29;88.21;99363.25;4156034;28;20207;-87
2023/02/03 00:02:34;;;;;;;4.78;1.83;;;;;;;8.31;89.31;99355.38;4139362;28;20297;-88
2023/02/03 00:04:37;;;;;;;4.07;1.98;;;;;;;8.25;89.26;99351.25;4142284;28;20238;-87
2023/02/03 00:06:41;;;;;;;2.10;1.60;;;;;;;8.20;89.36;99357.56;4157818;28;20316;-88
2023/02/03 00:08:44;;;;;;;3.28;1.50;;;;;;;8.21;89.55;99359.22;4137556;28;20242;-87
2023/02/03 00:10:50;;;;;;;2.35;1.40;;;;;;;8.18;88.25;99359.38;4152914;28;20655;-88
2023/02/03 00:12:55;;;;;;;4.63;2.17;;;;;;;8.19;89.01;99358.44;4137891;28;20226;-86
2023/02/03 00:14:58;;;;;;;3.35;1.80;;;;;;;8.19;89.46;99364.47;4153917;28;20273;-85
2023/02/03 00:17:01;;;;;;;3.22;1.80;;;;;;;8.16;88.44;99362.03;4152722;28;20222;-86
2023/02/03 00:19:04;;;;;;;5.90;2.05;;;;;;;8.11;88.80;99358.75;4154944;28;20210;-85
2023/02/03 00:21:07;;;;;;;3.35;1.90;;;;;;;8.10;88.52;99357.03;4156517;28;20199;-86
2023/02/03 00:23:11;;;;;;;3.15;2.00;;;;;;;8.16;89.21;99356.84;4152868;28;20250;-87
2023/02/03 00:25:14;;;;;;;3.63;1.92;;;;;;;8.15;89.58;99356.91;4154272;28;20618;-86
2023/02/03 00:27:18;;;;;;;3.78;1.70;;;;;;;8.16;88.37;99354.25;4154496;28;20218;-86
2023/02/03 00:29:24;;;;;;;4.28;1.83;;;;;;;8.13;88.94;99351.75;4154428;28;20240;-86
2023/02/03 00:31:27;;;;;;;3.58;2.08;;;;;;;8.09;88.84;99365.72;4151886;28;20316;-86
2023/02/03 00:33:32;;;;;;;2.67;1.75;;;;;;;8.13;88.58;99356.09;4155367;28;20198;-86
2023/02/03 00:35:38;;;;;;;5.05;1.70;;;;;;;8.14;88.98;99358.63;4154556;28;21014;-86
2023/02/03 00:37:41;;;;;;;4.78;1.80;;;;;;;8.09;89.28;99363.13;4170010;28;20247;-86
2023/02/03 00:39:44;;;;;;;2.22;1.80;;;;;;;8.10;89.27;99375.22;4155364;28;20213;-86
2023/02/03 00:41:48;;;;;;;4.00;2.10;;;;;;;8.14;89.01;99388.97;4158356;28;20930;-86
2023/02/03 00:43:54;;;;;;;2.95;2.05;;;;;;;8.15;88.48;99394.09;4142267;28;20199;-86
2023/02/03 00:45:58;;;;;;;4.07;1.60;;;;;;;8.17;89.60;99394.06;4149152;28;20293;-87
2023/02/03 00:48:02;;;;;;;2.85;1.65;;;;;;;8.18;88.98;99383.59;4140929;28;20211;-87
2023/02/03 00:50:06;;;;;;;4.60;1.73;;;;;;;8.16;88.62;99387.16;4157978;28;20225;-88
2023/02/03 00:52:10;;;;;;;2.78;1.77;;;;;;;8.18;89.54;99381.00;4138989;28;20207;-87
2023/02/03 00:54:13;;;;;;;1.95;1.60;;;;;;;8.15;89.84;99369.88;4157568;28;20207;-88
2023/02/03 00:56:17;;;;;;;2.20;1.55;;;;;;;8.16;89.88;99369.84;4141379;28;20365;-87
2023/02/03 00:58:20;;;;;;;2.15;1.77;;;;;;;8.12;89.47;99381.22;4155208;28;20210;-87
2023/02/03 01:00:24;;;;;;;3.63;1.55;;;;;;;8.17;88.46;99391.47;4139217;28;20211;-87
2023/02/03 01:02:28;;;;;;;3.08;1.60;;;;;;;8.16;88.41;99388.03;4176445;28;20627;-88
2023/02/03 01:04:31;;;;;;;2.65;1.63;;;;;;;8.16;89.64;99388.03;4154513;28;20211;-88
2023/02/03 01:06:34;;;;;;;2.78;1.73;;;;;;;8.15;89.92;99386.31;4174460;28;20235;-88
2023/02/03 01:08:37;;;;;;;2.17;1.60;;;;;;;8.12;88.35;99376.03;4171231;28;20519;-88
2023/02/03 01:10:43;;;;;;;2.45;1.55;;;;;;;8.13;88.97;99367.34;4159816;28;20238;-87
2023/02/03 01:12:46;;;;;;;2.90;1.70;;;;;;;8.10;89.85;99346.66;4167263;28;20207;-86
2023/02/03 01:14:49;;;;;;;1.85;1.70;;;;;;;8.02;89.85;99330.50;4148794;28;20309;-87
2023/02/03 01:16:54;;;;;;;2.17;1.63;;;;;;;8.03;89.70;99341.75;4133766;28;20215;-88
2023/02/03 01:18:57;;;;;;;2.95;1.40;;;;;;;8.02;89.46;99342.63;4153689;28;20203;-87
2023/02/03 01:21:07;;;;;;;2.40;1.50;;;;;;;7.99;89.39;99347.94;4143046;28;20237;-87
2023/02/03 01:23:10;;;;;;;2.17;1.45;;;;;;;8.01;90.89;99352.19;4138818;28;20206;-87
2023/02/03 01:25:13;;;;;;;3.15;1.65;;;;;;;8.02;89.86;99359.06;4156267;28;20206;-87
2023/02/03 01:27:16;;;;;;;3.28;1.98;;;;;;;8.04;89.50;99356.41;4177461;28;20210;-88
2023/02/03 01:29:19;;;;;;;2.97;1.80;;;;;;;8.00;89.31;99347.91;4139376;28;20214;-87
2023/02/03 01:31:26;;;;;;;2.10;1.55;;;;;;;8.04;90.92;99352.06;4157346;28;20242;-87
2023/02/03 01:33:30;;;;;;;4.40;1.77;;;;;;;8.06;89.67;99345.06;4158525;28;21112;-87
2023/02/03 01:35:34;;;;;;;3.38;1.85;;;;;;;8.06;90.55;99332.06;4142989;28;20218;-87
2023/02/03 01:37:38;;;;;;;2.90;2.25;;;;;;;7.97;89.39;99332.44;4171098;28;20206;-87
2023/02/03 01:39:41;;;;;;;5.65;4.05;;;;;;;7.91;91.21;99334.41;4136179;28;20211;-87
2023/02/03 01:41:44;;;;;;;5.25;2.75;;;;;;;7.86;90.39;99325.94;4155712;28;20210;-87
2023/02/03 01:43:51;;;;;;;3.40;2.70;;;;;;;7.75;91.65;99317.72;4142415;28;20210;-87
2023/02/03 01:45:54;;;;;;;4.25;2.67;;;;;;;7.74;90.58;99331.63;4136826;28;20216;-87
2023/02/03 01:47:59;;;;;;;4.82;2.03;;;;;;;7.70;91.52;99326.59;4138981;28;20545;-90
2023/02/03 01:50:10;;;;;;;2.47;1.80;;;;;;;7.74;92.21;99335.94;4158478;28;20252;-86
2023/02/03 01:52:13;;;;;;;3.78;1.88;;;;;;;7.76;91.39;99345.38;4156691;28;20210;-87
2023/02/03 01:54:18;;;;;;;2.22;1.92;;;;;;;7.81;91.86;99347.81;4156997;28;20551;-87
2023/02/03 01:56:21;;;;;;;4.20;2.38;;;;;;;7.84;90.93;99338.13;4138468;28;20207;-87
2023/02/03 01:58:28;;;;;;;2.03;1.80;;;;;;;7.88;90.76;99331.06;4136942;28;20767;-87
2023/02/03 02:00:31;;;;;;;1.95;1.60;;;;;;;7.91;90.59;99323.16;4169765;28;20251;-88
2023/02/03 02:02:35;;;;;;;3.17;1.65;;;;;;;7.92;91.24;99317.06;4155208;28;20204;-87
2023/02/03 02:04:43;;;;;;;2.58;1.58;;;;;;;7.83;91.95;99317.41;4154258;28;20214;-87
2023/02/03 02:06:48;;;;;;;3.35;1.90;;;;;;;7.85;91.64;99318.19;4157777;28;20202;-88
2023/02/03 02:08:52;;;;;;;3.38;2.35;;;;;;;7.84;90.96;99308.75;4170638;28;20285;-87
2023/02/03 02:10:55;;;;;;;3.75;2.13;;;;;;;7.82;91.01;99306.19;4150208;28;20672;-87
2023/02/03 02:12:59;;;;;;;2.70;1.90;;;;;;;7.86;90.83;99289.56;4154500;28;20241;-88
2023/02/03 02:15:02;;;;;;;2.40;1.80;;;;;;;7.86;91.05;99283.56;4137934;28;20242;-87
2023/02/03 02:17:11;;;;;;;3.78;1.80;;;;;;;7.87;90.76;99274.88;4155195;28;20298;-88
2023/02/03 02:19:34;;;;;;;4.20;2.00;;;;;;;7.84;90.81;99264.59;4135489;28;20202;-87
2023/02/03 02:21:50;;;;;;;5.15;1.55;;;;;;;7.79;91.96;99262.19;4152562;28;20906;-87
2023/02/03 02:24:20;;;;;;;4.93;2.67;;;;;;;7.83;92.24;99266.31;4172961;28;20691;-87
2023/02/03 02:26:45;;;;;;;2.45;1.83;;;;;;;7.90;92.10;99261.75;4139587;28;20211;-88
2023/02/03 02:29:03;;;;;;;3.88;1.75;;;;;;;7.74;92.32;99256.31;4170512;28;20264;-87
2023/02/03 02:31:31;;;;;;;1.65;1.35;;;;;;;7.58;91.38;99241.38;4155145;28;20194;-87
2023/02/03 02:33:41;;;;;;;2.08;1.67;;;;;;;7.55;92.17;99237.16;4139168;28;20754;-87
2023/02/03 02:35:50;;;;;;;5.20;1.75;;;;;;;7.50;92.89;99222.66;4155208;28;20651;-88
2023/02/03 02:37:59;;;;;;;3.90;1.60;;;;;;;7.37;92.56;99224.03;4155294;28;20344;-87
2023/02/03 02:40:09;;;;;;;3.63;2.03;;;;;;;7.25;92.91;99241.81;4139142;28;20737;-88
2023/02/03 02:42:16;;;;;;;4.00;1.90;;;;;;;7.27;94.55;99260.75;4138352;28;20260;-86
2023/02/03 02:44:24;;;;;;;2.38;1.52;;;;;;;7.36;92.90;99261.25;4136002;28;20235;-87
2023/02/03 02:46:33;;;;;;;3.28;2.10;;;;;;;7.46;93.80;99270.41;4138994;28;20211;-86
2023/02/03 02:48:40;;;;;;;3.53;1.77;;;;;;;7.53;92.65;99269.25;4142180;28;20210;-87
2023/02/03 02:50:46;;;;;;;3.45;1.60;;;;;;;7.60;93.13;99281.09;4136715;28;20269;-88
2023/02/03 02:52:51;;;;;;;3.50;1.45;;;;;;;7.66;93.20;99278.28;4161556;28;20281;-88
2023/02/03 02:54:58;;;;;;;4.72;1.70;;;;;;;7.70;93.11;99280.69;4156532;28;20301;-87
2023/02/03 02:57:03;;;;;;;3.42;1.50;;;;;;;7.73;91.98;99266.75;4143569;28;20200;-87
2023/02/03 02:59:07;;;;;;;2.10;1.45;;;;;;;7.73;92.94;99256.38;4155433;28;20214;-87
2023/02/03 03:01:10;;;;;;;3.50;2.03;;;;;;;7.72;92.24;99250.31;4173094;28;20206;-88
2023/02/03 03:03:16;;;;;;;2.20;1.77;;;;;;;7.70;92.43;99241.75;4138450;28;20280;-88
2023/02/03 03:05:19;;;;;;;3.35;2.10;;;;;;;7.66;93.29;99247.97;4157410;28;20688;-88
2023/02/03 03:07:27;;;;;;;4.45;2.30;;;;;;;7.70;93.71;99253.91;4159143;28;20207;-87
2023/02/03 03:09:34;;;;;;;2.97;1.80;;;;;;;7.78;93.14;99250.09;4145039;28;20309;-87
2023/02/03 03:11:42;;;;;;;4.03;2.30;;;;;;;7.83;91.68;99248.16;4140361;28;20714;-87
2023/02/03 03:13:48;;;;;;;2.75;2.25;;;;;;;7.87;91.96;99241.94;4145039;28;20233;-87
2023/02/03 03:15:54;;;;;;;2.15;1.83;;;;;;;7.95;92.54;99246.84;4152671;28;20206;-87
2023/02/03 03:18:01;;;;;;;2.42;2.13;;;;;;;7.96;92.80;99233.78;4145578;28;20302;-88
2023/02/03 03:20:10;;;;;;;2.00;1.58;;;;;;;7.97;92.79;99243.28;4157005;28;20210;-88
2023/02/03 03:22:15;;;;;;;3.80;2.05;;;;;;;7.94;91.90;99245.13;4157333;28;20263;-88
2023/02/03 03:24:22;;;;;;;2.78;1.90;;;;;;;7.96;91.39;99255.41;4157631;28;20574;-88
2023/02/03 03:26:28;;;;;;;2.70;1.90;;;;;;;7.98;92.21;99264.00;4142220;28;20274;-87
2023/02/03 03:28:36;;;;;;;2.20;2.00;;;;;;;8.04;92.09;99274.16;4158288;28;20211;-88
2023/02/03 03:30:40;;;;;;;3.45;1.73;;;;;;;8.06;91.46;99285.31;4151678;28;20209;-88
2023/02/03 03:32:43;;;;;;;3.15;1.75;;;;;;;8.07;91.64;99275.75;4160987;28;20633;-88
2023/02/03 03:34:46;;;;;;;2.13;1.77;;;;;;;8.10;91.24;99273.03;4173507;28;20292;-88
2023/02/03 03:36:56;;;;;;;2.85;1.80;;;;;;;8.15;91.11;99282.41;4159799;28;20206;-88
2023/02/03 03:39:04;;;;;;;2.50;1.90;;;;;;;8.17;90.62;99277.97;4157550;28;20200;-87
2023/02/03 03:41:13;;;;;;;2.95;1.35;;;;;;;8.17;91.06;99290.13;4158396;28;20370;-88
2023/02/03 03:43:17;;;;;;;2.15;1.52;;;;;;;8.19;91.43;99296.09;4142471;28;20699;-88
2023/02/03 03:45:25;;;;;;;2.78;1.60;;;;;;;8.18;90.13;99303.06;4174921;28;20297;-88
2023/02/03 03:47:31;;;;;;;2.30;1.52;;;;;;;8.21;91.16;99308.13;4156401;28;20711;-88
2023/02/03 03:49:35;;;;;;;2.10;1.38;;;;;;;8.24;90.48;99304.53;4171890;28;20256;-87
2023/02/03 03:51:43;;;;;;;3.35;1.67;;;;;;;8.26;90.60;99311.38;4142712;28;20302;-88
2023/02/03 03:53:50;;;;;;;2.78;1.95;;;;;;;8.27;90.87;99313.09;4142138;28;20281;-88
2023/02/03 03:55:54;;;;;;;1.90;1.40;;;;;;;8.28;91.16;99309.56;4156161;28;20209;-87
2023/02/03 03:58:00;;;;;;;2.05;1.50;;;;;;;8.28;90.89;99319.13;4157725;28;20203;-88
2023/02/03 04:00:05;;;;;;;2.35;1.70;;;;;;;8.32;90.06;99315.50;4138728;28;20582;-88
2023/02/03 04:02:13;;;;;;;4.07;2.10;;;;;;;8.30;89.42;99314.69;4155807;28;20376;-87
2023/02/03 04:04:17;;;;;;;3.70;1.75;;;;;;;8.25;90.14;99314.88;4141681;28;20211;-88
2023/02/03 04:06:20;;;;;;;2.80;1.60;;;;;;;8.26;90.49;99323.53;4142792;28;20235;-88
2023/02/03 04:08:23;;;;;;;1.90;1.67;;;;;;;8.26;91.06;99313.97;4156295;28;20767;-88
2023/02/03 04:10:34;;;;;;;2.60;1.58;;;;;;;8.26;90.18;99311.38;4155356;28;20707;-87
2023/02/03 04:12:37;;;;;;;1.60;1.35;;;;;;;8.33;89.98;99323.25;4155163;28;20218;-88
2023/02/03 04:14:41;;;;;;;2.90;1.70;;;;;;;8.31;90.31;99309.44;4155699;28;20222;-88
2023/02/03 04:16:43;;;;;;;2.05;1.67;;;;;;;8.25;90.77;99304.47;4154985;28;20337;-88
2023/02/03 04:18:46;;;;;;;2.08;1.70;;;;;;;8.31;91.24;99311.19;4136131;28;20223;-88
2023/02/03 04:20:50;;;;;;;3.80;2.15;;;;;;;8.30;90.24;99312.09;4142192;28;20218;-88
2023/02/03 04:22:53;;;;;;;2.25;1.70;;;;;;;8.25;90.78;99312.28;4142116;28;20762;-88
2023/02/03 04:24:57;;;;;;;2.42;1.60;;;;;;;8.23;90.95;99314.09;4156923;28;20326;-88
2023/02/03 04:27:02;;;;;;;4.57;1.77;;;;;;;8.24;91.11;99312.34;4157520;28;20301;-88
2023/02/03 04:29:07;;;;;;;1.75;1.50;;;;;;;8.21;91.14;99308.13;4170776;28;20231;-87
2023/02/03 04:31:10;;;;;;;2.40;1.63;;;;;;;8.20;91.34;99306.44;4170561;28;20237;-87
2023/02/03 04:33:13;;;;;;;2.20;1.60;;;;;;;8.17;92.32;99303.94;4153654;28;20227;-88
2023/02/03 04:35:16;;;;;;;2.17;1.40;;;;;;;8.19;92.41;99304.72;4174181;28;20580;-87
2023/02/03 04:37:19;;;;;;;2.60;1.45;;;;;;;8.23;91.28;99295.09;4159923;28;20305;-88
2023/02/03 04:39:22;;;;;;;2.30;1.65;;;;;;;8.22;91.53;99291.63;4158338;28;20289;-88
2023/02/03 04:41:25;;;;;;;3.38;1.48;;;;;;;8.23;92.28;99295.91;4144146;28;20665;-88
2023/02/03 04:43:30;;;;;;;2.80;1.80;;;;;;;8.24;92.00;99300.22;4155414;28;20229;-88
2023/02/03 04:45:33;;;;;;;1.95;1.50;;;;;;;8.24;92.41;99313.22;4136859;28;20271;-88
2023/02/03 04:47:36;;;;;;;1.88;1.55;;;;;;;8.21;91.71;99318.53;4156547;28;20207;-88
2023/02/03 04:49:39;;;;;;;2.75;1.65;;;;;;;8.21;92.09;99299.47;4157472;28;20234;-88
2023/02/03 04:51:43;;;;;;;2.30;1.70;;;;;;;8.21;92.10;99282.16;4160180;28;20221;-88
2023/02/03 04:53:46;;;;;;;2.72;1.70;;;;;;;8.22;93.85;99283.81;4173884;28;20764;-88
2023/02/03 04:55:49;;;;;;;2.80;1.80;;;;;;;8.18;93.71;99281.44;4158443;28;20204;-87
2023/02/03 04:57:55;;;;;;;1.80;1.52;;;;;;;7.98;94.62;99287.38;4143961;28;20221;-87
2023/02/03 04:59:59;;;;;;;2.95;1.40;;;;;;;7.87;94.69;99293.03;4172323;28;20269;-87
2023/02/03 05:02:03;;;;;;;2.42;1.55;;;;;;;7.70;95.62;99285.06;4170747;28;20259;-87
2023/02/03 05:04:06;;;;;;;2.13;1.55;;;;;;;7.50;95.88;99279.75;4152564;28;20212;-87
2023/02/03 05:06:09;;;;;;;1.70;1.60;;;;;;;7.41;97.05;99298.25;4157637;28;20288;-87
2023/02/03 05:08:12;;;;;;;1.73;1.50;;;;;;;7.30;98.16;99300.38;4169567;28;20235;-87
2023/02/03 05:10:15;;;;;;;3.47;1.80;;;;;;;7.17;99.47;99312.13;4137701;28;20206;-88
2023/02/03 05:12:18;;;;;;;5.68;3.80;;;;;;;7.19;98.10;99307.72;4157493;28;20662;-88
2023/02/03 05:14:21;;;;;;;5.07;3.92;;;;;;;7.22;99.82;99299.81;4135504;28;20655;-87
2023/02/03 05:16:26;;;;;;;4.82;3.47;;;;;;;7.18;99.51;99302.59;4129524;28;20203;-86
2023/02/03 05:18:29;;;;;;;3.17;2.20;;;;;;;7.23;99.82;99293.75;4140042;28;20210;-87
2023/02/03 05:20:32;;;;;;;3.45;2.95;;;;;;;7.23;99.93;99291.16;4142396;28;20214;-86
2023/02/03 05:22:35;;;;;;;2.80;2.42;;;;;;;7.20;98.48;99295.59;4157559;28;20213;-87
2023/02/03 05:24:38;;;;;;;2.47;1.77;;;;;;;7.23;99.05;99290.28;4173392;28;20210;-87
2023/02/03 05:26:41;;;;;;;1.83;1.35;;;;;;;7.32;98.71;99285.63;4171695;28;20282;-87
2023/02/03 05:28:44;;;;;;;1.63;1.00;;;;;;;7.33;98.73;99299.44;4156315;28;20735;-87
2023/02/03 05:30:47;;;;;;;1.33;1.10;;;;;;;7.36;99.18;99297.56;4136479;28;20249;-87
2023/02/03 05:32:52;;;;;;;1.58;1.20;;;;;;;7.36;98.39;99300.16;4171748;28;20216;-87
2023/02/03 05:34:55;;;;;;;2.00;1.13;;;;;;;7.32;99.92;99313.31;4140257;28;20243;-87
2023/02/03 05:36:59;;;;;;;1.38;1.00;;;;;;;7.35;100.00;99315.78;4169087;28;20619;-87
2023/02/03 05:39:02;;;;;;;2.75;1.17;;;;;;;7.36;98.73;99317.50;4154774;28;20289;-87
2023/02/03 05:43:27;;;;;;;3.53;1.20;;;;;;;7.37;99.57;99329.56;4153443;28;20231;-87
2023/02/03 05:45:30;;;;;;;2.28;1.20;;;;;;;7.37;100.00;99320.03;4151037;28;20604;-87
2023/02/03 05:47:33;;;;;;;1.50;1.30;;;;;;;7.41;99.78;99312.97;4157676;28;20206;-87
2023/02/03 05:49:38;;;;;;;2.10;1.45;;;;;;;7.43;100.00;99304.25;4159739;28;20587;-87
2023/02/03 05:51:41;;;;;;;3.60;1.50;;;;;;;7.43;100.00;99293.88;4155856;28;20214;-87
2023/02/03 05:53:44;;;;;;;2.50;1.67;;;;;;;7.41;99.59;99279.25;4156600;28;20316;-87
2023/02/03 05:55:47;;;;;;;2.00;1.40;;;;;;;7.18;100.00;99269.69;4138014;28;20586;-87
2023/02/03 05:57:50;;;;;;;2.20;1.38;;;;;;;7.13;100.00;99284.59;4152878;28;20200;-87
2023/02/03 05:59:53;;;;;;;2.17;1.77;;;;;;;7.08;100.00;99286.50;4152892;28;20257;-87
2023/02/03 06:01:56;;;;;;;2.30;1.70;;;;;;;7.06;100.00;99303.84;4149738;28;20209;-87
2023/02/03 06:04:00;;;;;;;2.30;1.65;;;;;;;7.13;100.00;99300.16;4151686;28;20213;-87
2023/02/03 06:06:05;;;;;;;1.65;1.33;;;;;;;7.22;100.00;99311.97;4154587;28;20248;-87
2023/02/03 06:08:08;;;;;;;1.80;1.50;;;;;;;7.23;100.00;99290.28;4172731;28;20232;-88
2023/02/03 06:10:11;;;;;;;3.20;1.65;;;;;;;7.20;100.00;99300.78;4156689;28;20210;-87
2023/02/03 06:12:15;;;;;;;1.90;1.52;;;;;;;7.14;100.00;99304.44;4153432;28;20256;-87
2023/02/03 06:14:17;;;;;;;2.30;1.50;;;;;;;7.12;100.00;99300.19;4156518;28;20280;-87
2023/02/03 06:16:21;;;;;;;3.45;1.80;;;;;;;7.06;100.00;99298.66;4154333;28;20204;-87
2023/02/03 06:18:24;;;;;;;3.60;2.17;;;;;;;6.99;100.00;99296.38;4151868;28;20304;-86
2023/02/03 06:20:27;;;;;;;2.13;1.50;;;;;;;6.97;100.00;99290.38;4157899;28;20212;-89
2023/02/03 06:22:31;;;;;;;6.28;2.33;;;;;;;6.97;100.00;99298.16;4156076;28;20213;-87
2023/02/03 06:24:35;;;;;;;2.95;1.80;;;;;;;6.94;100.00;99292.22;4158069;28;20209;-88
2023/02/03 06:26:38;;;;;;;2.92;2.25;;;;;;;6.94;100.00;99285.28;4140765;28;20599;-86
2023/02/03 06:28:41;;;;;;;3.50;2.20;;;;;;;6.88;100.00;99277.72;4150601;28;20350;-89
2023/02/03 06:30:44;;;;;;;5.05;3.00;;;;;;;6.81;100.00;99276.25;4136996;28;20215;-85
2023/02/03 06:32:48;;;;;;;5.25;3.17;;;;;;;6.85;100.00;99283.00;4155882;28;20212;-85
2023/02/03 06:34:51;;;;;;;3.00;2.47;;;;;;;6.81;100.00;99270.22;4168350;28;20698;-85
2023/02/03 06:36:54;;;;;;;3.38;2.20;;;;;;;6.83;100.00;99277.03;4157033;28;20206;-85
2023/02/03 06:38:58;;;;;;;3.70;2.17;;;;;;;6.74;100.00;99263.56;4139110;28;20643;-85
2023/02/03 06:41:01;;;;;;;3.20;2.30;;;;;;;6.71;100.00;99269.69;4148736;28;20203;-85
2023/02/03 06:43:05;;;;;;;3.35;2.35;;;;;;;6.64;100.00;99263.00;4171116;28;20201;-85
2023/02/03 06:45:09;;;;;;;2.97;2.15;;;;;;;6.66;100.00;99258.63;4169736;28;20294;-85
2023/02/03 06:47:12;;;;;;;4.32;2.72;;;;;;;6.63;100.00;99244.91;4154573;28;20249;-85
2023/02/03 06:49:16;;;;;;;5.15;2.33;;;;;;;6.59;100.00;99245.94;4149479;28;20211;-85
2023/02/03 06:51:19;;;;;;;3.00;2.38;;;;;;;6.51;100.00;99245.38;4168970;28;20202;-85
2023/02/03 06:53:22;;;;;;;2.28;2.00;;;;;;;6.52;100.00;99246.19;4151032;28;20210;-84
2023/02/03 06:55:26;;;;;;;4.75;2.33;;;;;;;6.48;100.00;99240.28;4139577;28;20233;-84
2023/02/03 06:57:29;;;;;;;3.35;2.25;;;;;;;6.46;100.00;99249.84;4150527;28;20217;-84
2023/02/03 06:59:32;;;;;;;4.13;2.50;;;;;;;6.51;100.00;99257.44;4152477;28;20656;-85
2023/02/03 07:01:35;;;;;;;2.13;1.90;;;;;;;6.52;100.00;99259.16;4153384;28;20298;-85
2023/02/03 07:03:38;;;;;;;4.50;2.80;;;;;;;6.52;100.00;99254.81;4149635;28;20208;-85
2023/02/03 07:05:41;;;;;;;5.15;3.20;;;;;;;6.54;100.00;99250.44;4130669;28;20208;-85
2023/02/03 07:07:44;;;;;;;5.65;3.45;;;;;;;6.56;100.00;99253.81;4149235;28;20273;-85
2023/02/03 07:09:47;;;;;;;2.97;2.67;;;;;;;6.55;100.00;99252.13;4154730;28;20649;-85
2023/02/03 07:11:51;;;;;;;3.72;2.10;;;;;;;6.58;100.00;99257.19;4171832;28;20222;-84
2023/02/03 07:13:55;;;;;;;3.53;2.15;;;;;;;6.56;100.00;99249.47;4169133;28;20251;-85
2023/02/03 07:15:58;;;;;;;3.00;1.83;;;;;;;6.55;100.00;99257.28;4163775;28;20268;-88
2023/02/03 07:18:01;;;;;;;2.15;1.75;;;;;;;6.54;100.00;99245.25;4152601;28;20217;-85
2023/02/03 07:20:05;;;;;;;2.17;1.98;;;;;;;6.57;100.00;99253.78;4151318;28;20217;-85
2023/02/03 07:22:09;;;;;;;2.70;1.83;;;;;;;6.54;100.00;99260.81;4153126;28;20217;-86
2023/02/03 07:24:12;;;;;;;4.28;1.90;;;;;;;6.58;100.00;99247.69;4154903;28;20604;-85
2023/02/03 07:26:16;;;;;;;3.55;1.67;;;;;;;6.57;100.00;99250.34;4167503;28;20736;-86
2023/02/03 07:28:20;;;;;;;2.75;2.25;;;;;;;6.54;100.00;99250.44;4170226;28;20214;-86
2023/02/03 07:30:23;;;;;;;3.20;2.00;;;;;;;6.63;100.00;99263.06;4137585;28;20215;-87
2023/02/03 07:32:26;;;;;;;3.05;1.88;;;;;;;6.70;100.00;99274.91;4137534;28;20199;-86
2023/02/03 07:34:29;;;;;;;4.50;2.63;;;;;;;6.74;100.00;99272.16;4169805;28;20210;-87
2023/02/03 07:36:32;;;;;;;3.58;2.10;;;;;;;6.83;100.00;99289.16;4139839;28;20216;-87
2023/02/03 07:38:37;;;;;;;3.97;1.80;;;;;;;6.91;100.00;99294.94;4176750;28;20245;-90
2023/02/03 07:40:41;;;;;;;2.00;1.52;;;;;;;6.98;100.00;99297.25;4153285;28;20246;-86
2023/02/03 07:42:44;;;;;;;2.60;1.83;;;;;;;7.05;100.00;99303.91;4142452;28;20268;-87
2023/02/03 07:44:49;;;;;;;2.58;1.73;;;;;;;7.08;100.00;99296.88;4176272;28;20201;-86
2023/02/03 07:46:52;;;;;;;3.17;2.00;;;;;;;7.13;100.00;99305.34;4159596;28;20235;-87
2023/02/03 07:48:55;;;;;;;3.58;1.90;;;;;;;7.18;100.00;99307.78;4176588;28;20209;-86
2023/02/03 07:50:58;;;;;;;3.63;1.70;;;;;;;7.20;100.00;99309.41;4162406;28;20199;-85
2023/02/03 07:53:01;;;;;;;3.20;1.60;;;;;;;7.27;100.00;99325.59;4152887;28;20305;-86
2023/02/03 07:55:05;;;;;;;4.35;1.92;;;;;;;7.26;100.00;99321.31;4173608;28;20230;-86
2023/02/03 07:57:08;;;;;;;1.92;1.63;;;;;;;7.32;100.00;99327.16;4152480;28;20244;-83
2023/02/03 07:59:11;;;;;;;5.10;3.67;;;;;;;7.44;100.00;99326.69;4151061;28;20224;-82
2023/02/03 08:01:16;;;;;;;3.60;2.35;;;;;;;7.43;100.00;99337.09;4153787;28;20213;-83
2023/02/03 08:03:19;;;;;;;2.35;1.83;;;;;;;7.45;100.00;99333.56;4168971;28;20208;-83
2023/02/03 08:05:22;;;;;;;4.50;2.33;;;;;;;7.40;100.00;99339.84;4161900;28;20293;-83
2023/02/03 08:07:25;;;;;;;2.80;1.40;;;;;;;7.31;100.00;99346.19;4146726;28;20203;-83
2023/02/03 08:09:28;;;;;;;1.77;1.40;;;;;;;7.36;100.00;99338.25;4153432;28;20641;-84
2023/02/03 08:11:32;;;;;;;4.15;1.73;;;;;;;7.40;100.00;99326.88;4152905;28;20341;-84
2023/02/03 08:13:35;;;;;;;2.72;1.77;;;;;;;7.32;100.00;99324.56;4167670;28;20857;-84
2023/02/03 08:15:38;;;;;;;2.35;1.70;;;;;;;7.24;100.00;99320.53;4140765;28;20227;-83
2023/02/03 08:17:43;;;;;;;3.00;1.88;;;;;;;7.20;100.00;99331.91;4140354;28;20221;-83
2023/02/03 08:19:46;;;;;;;2.88;2.10;;;;;;;7.15;100.00;99334.66;4156933;28;20207;-83
2023/02/03 08:21:50;;;;;;;2.53;1.90;;;;;;;7.16;100.00;99330.34;4154969;28;20211;-83
2023/02/03 08:23:53;;;;;;;4.20;2.28;;;;;;;7.08;100.00;99333.19;4156592;28;20585;-83
2023/02/03 08:25:56;;;;;;;2.60;1.77;;;;;;;7.03;100.00;99321.28;4144103;28;20207;-83
2023/02/03 08:27:59;;;;;;;2.67;1.77;;;;;;;7.01;100.00;99314.47;4142775;28;20240;-84
2023/02/03 08:30:02;;;;;;;2.67;1.98;;;;;;;6.93;100.00;99299.16;4156197;28;20656;-84
2023/02/03 08:32:09;;;;;;;2.78;2.38;;;;;;;6.91;100.00;99313.06;4148113;28;20239;-83
2023/02/03 08:34:13;;;;;;;2.97;2.10;;;;;;;6.94;100.00;99318.16;4139900;28;20212;-84
2023/02/03 08:36:16;;;;;;;3.10;2.20;;;;;;;6.95;100.00;99319.88;4175748;28;21015;-83
2023/02/03 08:38:20;;;;;;;3.00;2.22;;;;;;;6.88;100.00;99331.31;4175923;28;20698;-83
2023/02/03 08:40:23;;;;;;;4.20;2.25;;;;;;;6.96;100.00;99358.72;4154684;28;20205;-83
2023/02/03 08:42:27;;;;;;;3.03;2.13;;;;;;;7.08;100.00;99355.66;4152591;28;20209;-83
2023/02/03 08:44:31;;;;;;;4.18;1.92;;;;;;;7.13;100.00;99352.03;4157306;28;20206;-83
2023/02/03 08:46:35;;;;;;;3.92;2.20;;;;;;;7.22;100.00;99340.50;4167387;28;21614;-84
2023/02/03 08:48:38;;;;;;;2.42;1.95;;;;;;;7.21;100.00;99337.03;4153892;28;20257;-84
2023/02/03 08:50:44;;;;;;;3.42;2.22;;;;;;;7.21;100.00;99342.22;4152568;28;20625;-83
2023/02/03 08:52:47;;;;;;;5.35;2.25;;;;;;;7.23;100.00;99332.66;4135375;28;20209;-83
2023/02/03 08:54:50;;;;;;;6.75;3.42;;;;;;;7.26;100.00;99337.75;4162678;28;20569;-83
2023/02/03 08:56:53;;;;;;;4.28;3.83;;;;;;;7.23;100.00;99347.34;4164897;28;20236;-83
2023/02/03 08:58:56;;;;;;;4.30;3.13;;;;;;;7.23;100.00;99342.16;4151532;28;20203;-83
2023/02/03 09:01:08;;;;;;;5.95;3.58;;;;;;;7.20;100.00;99332.78;4168074;28;20811;-83
2023/02/03 09:03:11;;;;;;;5.18;3.00;;;;;;;7.14;100.00;99324.31;4137369;28;21082;-83
2023/02/03 09:05:16;;;;;;;6.32;2.58;;;;;;;7.30;100.00;99325.50;4143793;28;20211;-83
2023/02/03 09:07:21;;;;;;;2.88;2.45;;;;;;;7.40;100.00;99327.72;4140483;28;20216;-83
2023/02/03 09:09:25;;;;;;;6.68;2.28;;;;;;;7.52;100.00;99330.69;4158925;28;20568;-83
2023/02/03 09:11:28;;;;;;;3.00;2.20;;;;;;;7.60;100.00;99322.63;4156682;28;20224;-84
2023/02/03 09:13:32;;;;;;;2.67;2.05;;;;;;;7.66;100.00;99325.00;4156270;28;20230;-83
2023/02/03 09:15:36;;;;;;;2.92;2.30;;;;;;;7.72;100.00;99332.56;4136679;28;20265;-83
2023/02/03 09:17:40;;;;;;;3.60;2.13;;;;;;;7.79;100.00;99332.28;4174041;28;20208;-83
2023/02/03 09:19:43;;;;;;;3.15;2.20;;;;;;;7.81;100.00;99332.22;4176851;28;20222;-83
2023/02/03 09:21:47;;;;;;;3.70;1.95;;;;;;;7.84;100.00;99332.09;4145517;28;20257;-83
2023/02/03 09:23:52;;;;;;;3.58;2.25;;;;;;;7.87;100.00;99348.41;4157422;28;20671;-83
2023/02/03 09:25:55;;;;;;;9.73;2.88;;;;;;;7.85;100.00;99338.97;4144531;28;20203;-83
2023/02/03 09:27:58;;;;;;;4.45;2.15;;;;;;;7.92;100.00;99356.88;4156651;28;20206;-83
2023/02/03 09:30:01;;;;;;;5.60;2.75;;;;;;;8.01;100.00;99346.13;4154329;28;20237;-83
2023/02/03 09:32:09;;;;;;;2.97;2.17;;;;;;;8.01;100.00;99352.19;4173214;28;20210;-83
2023/02/03 09:34:12;;;;;;;2.70;2.10;;;;;;;8.06;99.79;99350.25;4155410;28;20298;-83
2023/02/03 09:36:15;;;;;;;6.15;2.45;;;;;;;8.10;100.00;99333.66;4174080;28;20744;-84
2023/02/03 09:38:18;;;;;;;4.80;2.42;;;;;;;8.16;98.97;99332.59;4152953;28;20199;-84
2023/02/03 09:40:26;;;;;;;2.97;2.35;;;;;;;8.08;100.00;99330.25;4158385;28;20695;-83
2023/02/03 09:42:55;;;;;;;4.97;2.22;;;;;;;8.13;100.00;99325.78;4152645;28;20300;-83
2023/02/03 09:45:09;;;;;;;3.03;2.00;;;;;;;8.19;99.38;99329.88;4156921;28;20213;-83
2023/02/03 09:47:16;;;;;;;4.18;2.30;;;;;;;8.17;98.86;99332.53;4139147;28;20267;-83
2023/02/03 09:49:24;;;;;;;4.10;2.70;;;;;;;8.18;100.00;99323.00;4154373;28;20862;-83
2023/02/03 09:51:32;;;;;;;5.47;3.10;;;;;;;8.17;98.83;99319.53;4136890;28;20233;-83
2023/02/03 09:53:38;;;;;;;3.05;2.35;;;;;;;8.22;100.00;99316.75;4141918;28;20218;-83